Time;durP1;ratioP1;P1;durP2;ratioP2;P2;SDS_P1;SDS_P2;PMS_P1;PMS_P2;Temp;Humidity;BMP_temperature;BMP_pressure;BME280_temperature;BME280_humidity;BME280_pressure;Samples;Min_cycle;Max_cycle;Signal;HPM_P1;HPM_P2
2022/04/23 00:00:35;;;;;;;28.42;15.60;;;;;;;;;;5095046;28;20036;-49
2022/04/23 00:03:01;;;;;;;23.30;13.85;;;;;;;;;;5095129;28;20052;-56
2022/04/23 00:05:28;;;;;;;25.90;15.27;;;;;;;;;;5095000;28;20056;-54
2022/04/23 00:07:54;;;;;;;23.83;14.05;;;;;;;;;;5095269;28;20036;-47
2022/04/23 00:10:19;;;;;;;26.60;15.88;;;;;;;;;;5095032;28;20030;-52
2022/04/23 00:12:46;;;;;;;30.38;16.90;;;;;;;;;;5094883;28;20024;-51
2022/04/23 00:15:12;;;;;;;25.38;16.23;;;;;;;;;;5095169;28;20069;-50
2022/04/23 00:17:37;;;;;;;28.42;17.65;;;;;;;;;;5094634;28;20688;-54
2022/04/23 00:20:05;;;;;;;28.20;18.50;;;;;;;;;;5095053;28;20032;-49
2022/04/23 00:22:30;;;;;;;30.90;19.05;;;;;;;;;;5094744;28;20028;-45
2022/04/23 00:24:57;;;;;;;28.33;18.38;;;;;;;;;;5094886;28;20026;-44
2022/04/23 00:27:23;;;;;;;29.40;18.85;;;;;;;;;;5094905;28;20055;-48
2022/04/23 00:29:48;;;;;;;28.48;19.33;;;;;;;;;;5094835;28;20433;-48
2022/04/23 00:32:14;;;;;;;30.20;18.60;;;;;;;;;;5094536;28;20060;-50
2022/04/23 00:34:39;;;;;;;29.77;18.35;;;;;;;;;;5094767;28;20111;-49
2022/04/23 00:37:05;;;;;;;29.15;18.83;;;;;;;;;;5094660;28;20088;-46
2022/04/23 00:39:32;;;;;;;28.42;18.63;;;;;;;;;;5094280;28;20032;-48
2022/04/23 00:42:00;;;;;;;29.75;19.75;;;;;;;;;;5094560;28;20027;-45
2022/04/23 00:44:26;;;;;;;24.65;18.23;;;;;;;;;;5092960;28;20031;-46
2022/04/23 00:46:51;;;;;;;29.42;19.50;;;;;;;;;;5094489;28;20020;-48
2022/04/23 00:49:17;;;;;;;30.17;18.17;;;;;;;;;;5094121;28;20499;-45
2022/04/23 00:51:42;;;;;;;27.75;18.77;;;;;;;;;;5094356;28;20114;-48
2022/04/23 00:54:09;;;;;;;31.88;18.73;;;;;;;;;;5094332;28;20035;-45
2022/04/23 00:56:39;;;;;;;27.15;17.58;;;;;;;;;;5094179;28;20024;-45
2022/04/23 00:59:11;;;;;;;32.13;18.80;;;;;;;;;;5094498;28;20118;-43
2022/04/23 01:01:40;;;;;;;29.88;18.63;;;;;;;;;;5093193;28;20047;-45
2022/04/23 01:04:06;;;;;;;32.10;18.17;;;;;;;;;;5094119;28;20032;-50
2022/04/23 01:06:34;;;;;;;27.05;17.58;;;;;;;;;;5094125;28;20089;-52
2022/04/23 01:09:07;;;;;;;29.98;18.38;;;;;;;;;;5094035;28;20035;-53
2022/04/23 01:11:33;;;;;;;29.48;17.85;;;;;;;;;;5093803;28;20038;-51
2022/04/23 01:14:00;;;;;;;27.98;19.33;;;;;;;;;;5093912;28;20024;-47
2022/04/23 01:16:26;;;;;;;29.55;17.95;;;;;;;;;;5093938;28;20032;-54
2022/04/23 01:18:51;;;;;;;29.52;18.67;;;;;;;;;;5093847;28;20024;-46
2022/04/23 01:21:17;;;;;;;30.50;18.60;;;;;;;;;;5093515;28;20069;-46
2022/04/23 01:23:48;;;;;;;27.17;18.30;;;;;;;;;;5093545;28;20482;-48
2022/04/23 01:26:22;;;;;;;30.52;18.40;;;;;;;;;;5093472;28;20031;-47
2022/04/23 01:28:49;;;;;;;26.52;17.50;;;;;;;;;;5093790;28;20024;-48
2022/04/23 01:31:14;;;;;;;29.42;19.42;;;;;;;;;;5093350;28;20028;-47
2022/04/23 01:33:40;;;;;;;33.08;18.58;;;;;;;;;;5093642;28;20031;-48
2022/04/23 01:36:05;;;;;;;26.88;17.98;;;;;;;;;;5093295;28;20601;-43
2022/04/23 01:38:31;;;;;;;28.33;18.23;;;;;;;;;;5093206;28;20035;-47
2022/04/23 01:40:56;;;;;;;29.45;18.55;;;;;;;;;;5093170;28;20024;-44
2022/04/23 01:43:22;;;;;;;29.98;18.50;;;;;;;;;;5093231;28;20024;-42
2022/04/23 01:45:47;;;;;;;30.60;19.02;;;;;;;;;;5093376;28;20028;-42
2022/04/23 01:48:13;;;;;;;32.50;19.58;;;;;;;;;;5093374;28;20028;-52
2022/04/23 01:50:38;;;;;;;31.67;19.50;;;;;;;;;;5093127;28;20380;-46
2022/04/23 01:53:04;;;;;;;30.33;18.17;;;;;;;;;;5091728;28;20054;-46
2022/04/23 01:55:30;;;;;;;30.58;19.65;;;;;;;;;;5093231;28;20036;-50
2022/04/23 01:57:55;;;;;;;28.80;18.65;;;;;;;;;;5093135;28;20067;-46
2022/04/23 02:00:21;;;;;;;30.98;18.65;;;;;;;;;;5092675;28;20437;-51
2022/04/23 02:02:46;;;;;;;31.52;17.90;;;;;;;;;;5092887;28;20020;-46
2022/04/23 02:05:12;;;;;;;28.02;18.23;;;;;;;;;;5092889;28;20103;-52
2022/04/23 02:07:43;;;;;;;29.75;18.95;;;;;;;;;;5093071;28;20415;-50
2022/04/23 02:10:11;;;;;;;27.35;18.42;;;;;;;;;;5093058;28;20055;-51
2022/04/23 02:12:38;;;;;;;27.02;18.55;;;;;;;;;;5092037;28;20099;-48
2022/04/23 02:15:08;;;;;;;27.38;18.20;;;;;;;;;;5092990;28;20070;-44
2022/04/23 02:17:39;;;;;;;30.02;18.90;;;;;;;;;;5093104;28;20027;-44
2022/04/23 02:20:06;;;;;;;29.25;19.33;;;;;;;;;;5092822;28;20063;-45
2022/04/23 02:22:32;;;;;;;31.40;19.85;;;;;;;;;;5092617;28;20126;-42
2022/04/23 02:24:58;;;;;;;34.88;21.30;;;;;;;;;;5092800;28;20089;-42
2022/04/23 02:27:24;;;;;;;32.88;19.25;;;;;;;;;;5092504;28;20098;-43
2022/04/23 02:29:53;;;;;;;31.23;19.95;;;;;;;;;;5092863;28;20023;-42
2022/04/23 02:32:19;;;;;;;32.80;19.63;;;;;;;;;;5092709;28;20028;-41
2022/04/23 02:34:45;;;;;;;35.08;19.75;;;;;;;;;;5092790;28;20032;-46
2022/04/23 02:37:11;;;;;;;33.63;20.27;;;;;;;;;;5092687;28;20047;-46
2022/04/23 02:39:38;;;;;;;31.30;20.33;;;;;;;;;;5092636;28;20047;-49
2022/04/23 02:42:05;;;;;;;31.15;19.98;;;;;;;;;;5092702;28;20032;-46
2022/04/23 02:44:31;;;;;;;36.70;20.70;;;;;;;;;;5092611;28;20062;-45
2022/04/23 02:46:56;;;;;;;37.13;21.83;;;;;;;;;;5092655;28;20020;-46
2022/04/23 02:49:22;;;;;;;31.67;20.33;;;;;;;;;;5092351;28;20483;-45
2022/04/23 02:51:48;;;;;;;32.42;20.88;;;;;;;;;;5092290;28;20167;-46
2022/04/23 02:54:14;;;;;;;31.40;19.92;;;;;;;;;;5092308;28;20024;-47
2022/04/23 02:56:39;;;;;;;34.83;21.55;;;;;;;;;;5092261;28;20031;-48
2022/04/23 02:59:06;;;;;;;40.05;22.33;;;;;;;;;;5091234;28;20032;-51
2022/04/23 03:01:34;;;;;;;32.30;20.58;;;;;;;;;;5092067;28;20132;-46
2022/04/23 03:04:03;;;;;;;39.03;23.08;;;;;;;;;;5092144;28;20380;-49
2022/04/23 03:06:30;;;;;;;38.63;21.95;;;;;;;;;;5092477;28;20020;-44
2022/04/23 03:08:56;;;;;;;40.67;23.17;;;;;;;;;;5092426;28;20028;-43
2022/04/23 03:11:22;;;;;;;42.40;24.10;;;;;;;;;;5092037;28;20077;-47
2022/04/23 03:13:48;;;;;;;47.13;23.77;;;;;;;;;;5090976;28;20028;-48
2022/04/23 03:16:13;;;;;;;47.38;24.50;;;;;;;;;;5092020;28;20043;-43
2022/04/23 03:18:39;;;;;;;37.70;23.85;;;;;;;;;;5091967;28;20035;-50
2022/04/23 03:21:05;;;;;;;41.42;24.00;;;;;;;;;;5092307;28;20085;-49
2022/04/23 03:23:31;;;;;;;41.97;24.83;;;;;;;;;;5092876;28;20410;-51
2022/04/23 03:25:57;;;;;;;42.95;23.58;;;;;;;;;;5096082;28;20541;-49
2022/04/23 03:28:23;;;;;;;39.42;24.10;;;;;;;;;;5094294;28;20023;-54
2022/04/23 03:30:49;;;;;;;41.50;24.55;;;;;;;;;;5094373;28;20551;-42
2022/04/23 03:33:14;;;;;;;44.90;25.38;;;;;;;;;;5094507;28;20124;-50
2022/04/23 03:35:40;;;;;;;40.88;23.52;;;;;;;;;;5095905;28;20540;-44
2022/04/23 03:38:06;;;;;;;44.67;24.75;;;;;;;;;;5095502;28;20032;-48
2022/04/23 03:40:31;;;;;;;39.05;23.17;;;;;;;;;;5095458;28;20036;-42
2022/04/23 03:42:57;;;;;;;44.75;24.17;;;;;;;;;;5094511;28;20023;-53
2022/04/23 03:45:24;;;;;;;45.33;24.02;;;;;;;;;;5095360;28;20055;-51
2022/04/23 03:47:49;;;;;;;38.40;23.70;;;;;;;;;;5095719;28;20441;-47
2022/04/23 03:50:16;;;;;;;43.38;24.80;;;;;;;;;;5095228;28;20035;-52
2022/04/23 03:52:42;;;;;;;42.00;24.02;;;;;;;;;;5095634;28;20387;-46
2022/04/23 03:55:08;;;;;;;44.08;24.83;;;;;;;;;;5095595;28;20134;-46
2022/04/23 03:57:50;;;;;;;42.75;24.38;;;;;;;;;;5095082;28;20441;-48
2022/04/23 04:00:19;;;;;;;40.40;22.95;;;;;;;;;;5095278;28;20044;-53
2022/04/23 04:02:45;;;;;;;43.95;25.40;;;;;;;;;;5095059;28;20054;-48
2022/04/23 04:05:11;;;;;;;45.40;26.40;;;;;;;;;;5095102;28;20020;-42
2022/04/23 04:07:44;;;;;;;43.92;26.20;;;;;;;;;;5095040;28;20084;-53
2022/04/23 04:10:15;;;;;;;49.20;29.20;;;;;;;;;;5094994;28;20024;-57
2022/04/23 04:12:41;;;;;;;47.65;26.85;;;;;;;;;;5095159;28;20078;-54
2022/04/23 04:15:08;;;;;;;38.65;23.73;;;;;;;;;;5095133;28;20020;-45
2022/04/23 04:17:35;;;;;;;41.75;25.17;;;;;;;;;;5094762;28;20107;-55
2022/04/23 04:20:01;;;;;;;42.63;24.42;;;;;;;;;;5094703;28;20028;-45
2022/04/23 04:22:26;;;;;;;45.45;24.35;;;;;;;;;;5095069;28;20032;-43
2022/04/23 04:24:52;;;;;;;54.08;25.48;;;;;;;;;;5094706;28;20043;-49
2022/04/23 04:27:17;;;;;;;45.60;24.25;;;;;;;;;;5094883;28;20027;-54
2022/04/23 04:29:43;;;;;;;42.00;22.60;;;;;;;;;;5094910;28;20028;-49
2022/04/23 04:32:09;;;;;;;45.60;24.35;;;;;;;;;;5094527;28;20020;-53
2022/04/23 04:34:34;;;;;;;45.45;22.88;;;;;;;;;;5094333;28;20031;-51
2022/04/23 04:37:02;;;;;;;53.28;28.88;;;;;;;;;;5093938;28;20468;-57
2022/04/23 04:39:28;;;;;;;45.72;26.33;;;;;;;;;;5094556;28;20073;-43
2022/04/23 04:41:53;;;;;;;46.53;25.88;;;;;;;;;;5094434;28;20028;-54
2022/04/23 04:44:19;;;;;;;46.80;25.02;;;;;;;;;;5094561;28;20051;-56
2022/04/23 04:46:44;;;;;;;41.15;25.35;;;;;;;;;;5094224;28;20066;-48
2022/04/23 04:49:10;;;;;;;48.17;26.10;;;;;;;;;;5094484;28;20028;-56
2022/04/23 04:51:36;;;;;;;46.50;26.30;;;;;;;;;;5094145;28;20027;-49
2022/04/23 04:54:04;;;;;;;43.67;26.33;;;;;;;;;;5094319;28;20027;-51
2022/04/23 04:56:30;;;;;;;49.08;26.40;;;;;;;;;;5094381;28;20035;-57
2022/04/23 04:58:55;;;;;;;45.08;23.63;;;;;;;;;;5093923;28;20395;-51
2022/04/23 05:01:21;;;;;;;44.38;23.05;;;;;;;;;;5092624;28;20097;-44
2022/04/23 05:03:47;;;;;;;45.65;23.15;;;;;;;;;;5093933;28;20036;-44
2022/04/23 05:06:12;;;;;;;43.67;21.98;;;;;;;;;;5093823;28;20035;-50
2022/04/23 05:08:38;;;;;;;43.08;22.63;;;;;;;;;;5093868;28;20024;-48
2022/04/23 05:11:05;;;;;;;44.35;21.52;;;;;;;;;;5094099;28;20454;-57
2022/04/23 05:13:30;;;;;;;47.42;22.30;;;;;;;;;;5093732;28;20035;-56
2022/04/23 05:15:57;;;;;;;43.72;21.30;;;;;;;;;;5093742;28;20039;-57
2022/04/23 05:18:23;;;;;;;35.20;19.23;;;;;;;;;;5093530;28;20020;-57
2022/04/23 05:20:48;;;;;;;39.15;20.15;;;;;;;;;;5093556;28;20031;-57
2022/04/23 05:23:14;;;;;;;45.67;20.35;;;;;;;;;;5093424;28;20019;-52
2022/04/23 05:25:40;;;;;;;36.25;20.23;;;;;;;;;;5093784;28;20028;-53
2022/04/23 05:28:05;;;;;;;39.45;22.00;;;;;;;;;;5092202;28;20031;-53
2022/04/23 05:30:31;;;;;;;44.50;21.63;;;;;;;;;;5093421;28;20048;-56
2022/04/23 05:32:57;;;;;;;54.35;22.67;;;;;;;;;;5093272;28;20472;-47
2022/04/23 05:35:22;;;;;;;40.05;20.98;;;;;;;;;;5093265;28;20035;-57
2022/04/23 05:37:48;;;;;;;44.88;21.55;;;;;;;;;;5093448;28;20012;-55
2022/04/23 05:40:13;;;;;;;40.30;19.08;;;;;;;;;;5093513;28;20038;-50
2022/04/23 05:42:38;;;;;;;37.83;20.17;;;;;;;;;;5093509;28;20372;-57
2022/04/23 05:45:05;;;;;;;38.72;19.23;;;;;;;;;;5093299;28;20024;-51
2022/04/23 05:47:30;;;;;;;40.97;21.85;;;;;;;;;;5092848;28;20024;-54
2022/04/23 05:49:56;;;;;;;41.85;21.33;;;;;;;;;;5093072;28;20059;-56
2022/04/23 05:52:21;;;;;;;40.70;20.85;;;;;;;;;;5093136;28;20031;-41
2022/04/23 05:54:47;;;;;;;35.75;19.85;;;;;;;;;;5092915;28;20031;-43
2022/04/23 05:57:12;;;;;;;40.97;21.77;;;;;;;;;;5092951;28;20039;-41
2022/04/23 05:59:37;;;;;;;41.58;21.63;;;;;;;;;;5092636;28;20052;-41
2022/04/23 06:02:03;;;;;;;42.50;21.08;;;;;;;;;;5092526;28;20020;-40
2022/04/23 06:04:30;;;;;;;40.42;20.50;;;;;;;;;;5091118;28;20062;-43
2022/04/23 06:06:58;;;;;;;40.88;20.35;;;;;;;;;;5092705;28;20028;-43
2022/04/23 06:09:23;;;;;;;33.22;19.25;;;;;;;;;;5093081;28;20396;-44
2022/04/23 06:11:49;;;;;;;34.83;18.70;;;;;;;;;;5091380;28;20020;-41
2022/04/23 06:14:14;;;;;;;31.73;16.75;;;;;;;;;;5092916;28;20118;-45
2022/04/23 06:16:39;;;;;;;28.55;17.48;;;;;;;;;;5092660;28;20017;-42
2022/04/23 06:19:05;;;;;;;31.58;18.45;;;;;;;;;;5092688;28;20373;-43
2022/04/23 06:21:31;;;;;;;29.30;17.58;;;;;;;;;;5092576;28;20043;-41
2022/04/23 06:23:57;;;;;;;31.60;16.73;;;;;;;;;;5092795;28;20383;-48
2022/04/23 07:02:58;;;;;;;24.67;15.17;;;;;;;;;;5215010;22;20320;31
2022/04/23 07:05:23;;;;;;;25.55;15.63;;;;;;;;;;5053060;28;20297;-43
2022/04/23 07:07:57;;;;;;;25.27;14.88;;;;;;;;;;5054237;28;20033;-49
2022/04/23 07:10:25;;;;;;;22.77;14.35;;;;;;;;;;5054872;28;20029;-46
2022/04/23 07:12:52;;;;;;;24.77;15.63;;;;;;;;;;5055532;28;20020;-42
2022/04/23 07:15:18;;;;;;;26.88;15.38;;;;;;;;;;5056121;28;20478;-47
2022/04/23 07:17:43;;;;;;;28.38;16.70;;;;;;;;;;5055614;28;20056;-55
2022/04/23 07:20:09;;;;;;;29.98;17.77;;;;;;;;;;5055843;28;20053;-49
2022/04/23 07:22:35;;;;;;;30.92;17.83;;;;;;;;;;5055741;28;20037;-50
2022/04/23 07:25:01;;;;;;;27.70;17.65;;;;;;;;;;5055972;28;20025;-47
2022/04/23 07:27:27;;;;;;;30.17;17.35;;;;;;;;;;5049661;28;20033;-48
2022/04/23 07:29:53;;;;;;;25.45;16.55;;;;;;;;;;5053964;28;20025;-50
2022/04/23 07:32:20;;;;;;;23.10;16.48;;;;;;;;;;5052990;28;20032;-58
2022/04/23 07:37:29;;;;;;;23.48;15.70;;;;;;;;;;5052953;28;20078;-45
2022/04/23 07:39:59;;;;;;;25.02;15.98;;;;;;;;;;5052419;28;20029;-57
2022/04/23 07:42:26;;;;;;;25.20;15.18;;;;;;;;;;5053760;28;20029;-54
2022/04/23 07:44:52;;;;;;;28.08;16.15;;;;;;;;;;5053664;28;20115;-53
2022/04/23 07:47:18;;;;;;;25.85;16.40;;;;;;;;;;5053710;28;20116;-55
2022/04/23 07:49:44;;;;;;;25.77;15.43;;;;;;;;;;5053801;28;20037;-57
2022/04/23 07:52:09;;;;;;;26.73;16.55;;;;;;;;;;5053625;28;20021;-58
2022/04/23 07:54:38;;;;;;;28.77;16.25;;;;;;;;;;5053780;28;20281;-57
2022/04/23 07:57:06;;;;;;;23.55;15.68;;;;;;;;;;5052735;28;20029;-57
2022/04/23 07:59:31;;;;;;;31.15;17.60;;;;;;;;;;5053637;28;20106;-42
2022/04/23 08:01:57;;;;;;;30.13;16.23;;;;;;;;;;5053265;28;20060;-55
2022/04/23 08:04:22;;;;;;;26.35;15.70;;;;;;;;;;5053313;28;20049;-42
2022/04/23 08:06:47;;;;;;;23.83;15.57;;;;;;;;;;5053503;28;20468;-48
2022/04/23 08:09:13;;;;;;;27.92;16.10;;;;;;;;;;5052956;28;20017;-57
2022/04/23 08:31:03;;;;;;;23.97;14.30;;;;;;;;;;5070780;28;20296;-42
2022/04/23 08:33:57;;;;;;;23.33;15.80;;;;;;;;;;5071867;28;20260;-45
2022/04/23 08:36:14;;;;;;;25.10;16.20;;;;;;;;;;5072627;28;20614;-47
2022/04/23 08:38:39;;;;;;;29.40;17.90;;;;;;;;;;5072491;28;20111;-53
2022/04/23 08:41:06;;;;;;;23.75;15.82;;;;;;;;;;5070773;28;20428;-57
2022/04/23 08:43:32;;;;;;;27.98;17.65;;;;;;;;;;5072732;28;20059;-55
2022/04/23 08:46:02;;;;;;;30.77;18.35;;;;;;;;;;5072540;28;20121;-44
2022/04/23 08:48:36;;;;;;;31.80;18.47;;;;;;;;;;5072761;28;20024;-49
2022/04/23 08:51:03;;;;;;;25.83;17.33;;;;;;;;;;5073207;28;20265;-44
2022/04/23 08:53:31;;;;;;;26.00;17.23;;;;;;;;;;5072552;28;20032;-52
2022/04/23 08:55:57;;;;;;;25.33;17.25;;;;;;;;;;5072405;28;20028;-41
2022/04/23 08:58:24;;;;;;;26.05;16.95;;;;;;;;;;5072044;28;20460;-48
2022/04/23 09:00:50;;;;;;;22.77;16.35;;;;;;;;;;5072678;28;20032;-46
2022/04/23 09:03:16;;;;;;;25.77;16.85;;;;;;;;;;5072278;28;20036;-48
2022/04/23 09:05:44;;;;;;;28.67;16.35;;;;;;;;;;5072088;28;20032;-46
2022/04/23 09:08:10;;;;;;;24.30;17.17;;;;;;;;;;5072066;28;20032;-47
2022/04/23 09:10:54;;;;;;;26.75;17.58;;;;;;;;;;5072046;28;20025;-47
2022/04/23 09:13:32;;;;;;;21.95;16.13;;;;;;;;;;5072179;28;20109;-55
2022/04/23 09:24:47;;;;;;;20.42;13.52;;;;;;;;;;5072159;28;20545;-57
2022/04/23 09:27:13;;;;;;;20.33;14.18;;;;;;;;;;5072002;28;20055;-51
2022/04/23 09:29:39;;;;;;;19.05;13.15;;;;;;;;;;5071994;28;20024;-46
2022/04/23 09:32:09;;;;;;;20.88;15.38;;;;;;;;;;5071436;28;20052;-51
2022/04/23 09:34:35;;;;;;;18.90;14.00;;;;;;;;;;5071558;28;20033;-54
2022/04/23 09:37:01;;;;;;;22.27;14.15;;;;;;;;;;5071505;28;20060;-55
2022/04/23 09:39:35;;;;;;;16.85;12.65;;;;;;;;;;5071722;28;20046;-50
2022/04/23 10:48:23;;;;;;;15.20;11.00;;;;;;;;;;5222268;22;20323;-59
2022/04/23 10:51:03;;;;;;;15.50;10.95;;;;;;;;;;5090929;28;20127;-59
2022/04/23 10:53:50;;;;;;;16.02;10.95;;;;;;;;;;5090658;28;20043;-60
2022/04/23 10:56:19;;;;;;;16.95;11.50;;;;;;;;;;5090979;28;20032;-61
2022/04/23 10:58:45;;;;;;;16.02;11.13;;;;;;;;;;5090708;28;20031;-59
2022/04/23 11:01:20;;;;;;;13.77;10.57;;;;;;;;;;5090740;28;20027;-59
2022/04/23 11:03:55;;;;;;;16.67;11.60;;;;;;;;;;5090873;28;20020;-58
2022/04/23 11:12:18;;;;;;;16.90;11.00;;;;;;;;;;5091152;28;20044;-56
2022/04/23 11:14:46;;;;;;;14.80;10.73;;;;;;;;;;5090880;28;20016;-60
2022/04/23 11:17:17;;;;;;;14.70;11.05;;;;;;;;;;5090961;28;20446;-60
2022/04/23 11:19:43;;;;;;;16.38;11.20;;;;;;;;;;5090485;28;20028;-56
2022/04/23 11:22:12;;;;;;;14.65;11.25;;;;;;;;;;5090551;28;20034;-59
2022/04/23 11:24:38;;;;;;;17.70;10.38;;;;;;;;;;5090585;28;20052;-61
2022/04/23 11:27:04;;;;;;;14.95;10.82;;;;;;;;;;5090501;28;20459;-59
2022/04/23 11:29:29;;;;;;;15.95;10.75;;;;;;;;;;5090769;28;20098;-59
2022/04/23 11:31:58;;;;;;;14.45;11.18;;;;;;;;;;5090594;28;20107;-61
2022/04/23 11:34:27;;;;;;;13.77;10.63;;;;;;;;;;5090577;28;20028;-60
2022/04/23 11:36:53;;;;;;;14.18;11.57;;;;;;;;;;5090442;28;20027;-61
2022/04/23 11:39:27;;;;;;;15.90;10.95;;;;;;;;;;5090468;28;20036;-60
2022/04/23 11:41:53;;;;;;;14.60;10.40;;;;;;;;;;5089040;28;20036;-60
2022/04/23 11:47:09;;;;;;;15.95;11.02;;;;;;;;;;5094065;28;20109;-62
2022/04/23 11:49:35;;;;;;;12.77;10.02;;;;;;;;;;5076191;28;20386;-59
2022/04/23 11:52:04;;;;;;;12.88;10.65;;;;;;;;;;5094022;28;20024;-61
2022/04/23 11:54:42;;;;;;;13.52;10.43;;;;;;;;;;5093700;28;20031;-61
2022/04/23 11:57:10;;;;;;;13.80;10.25;;;;;;;;;;5075285;28;20059;-45
2022/04/23 11:59:43;;;;;;;14.48;10.07;;;;;;;;;;5093576;28;20031;-42
2022/04/23 12:02:23;;;;;;;14.80;10.85;;;;;;;;;;5093539;28;20036;-56
2022/04/23 12:04:50;;;;;;;14.93;10.60;;;;;;;;;;5093862;28;20024;-41
2022/04/23 12:07:16;;;;;;;14.65;9.80;;;;;;;;;;5093927;28;20031;-47
2022/04/23 12:09:52;;;;;;;11.57;9.60;;;;;;;;;;5093549;28;20028;-41
2022/04/23 12:12:19;;;;;;;12.48;9.73;;;;;;;;;;5092456;28;20032;-50
2022/04/23 12:14:46;;;;;;;12.80;9.50;;;;;;;;;;5093325;28;20072;-40
2022/04/23 12:17:22;;;;;;;13.25;10.13;;;;;;;;;;5093632;28;20727;-47
2022/04/23 12:19:49;;;;;;;12.88;10.13;;;;;;;;;;5093063;28;20471;-62
2022/04/23 12:22:26;;;;;;;13.25;9.73;;;;;;;;;;5094657;28;20028;-49
2022/04/23 12:25:18;;;;;;;14.60;10.43;;;;;;;;;;5095121;28;20035;-62
2022/04/23 12:41:56;;;;;;;10.60;8.80;;;;;;;;;;5074586;28;20486;-42
2022/04/23 12:44:23;;;;;;;12.40;9.07;;;;;;;;;;5093338;28;20028;-56
2022/04/23 12:46:53;;;;;;;13.05;9.60;;;;;;;;;;5094405;28;20058;-57
2022/04/23 12:49:22;;;;;;;12.90;9.82;;;;;;;;;;5094449;28;20031;-53
2022/04/23 12:51:55;;;;;;;12.52;9.80;;;;;;;;;;5076015;28;20185;-59
2022/04/23 12:54:24;;;;;;;11.95;8.88;;;;;;;;;;5077211;28;20056;-57
2022/04/23 12:56:51;;;;;;;12.70;8.70;;;;;;;;;;5073425;28;20106;-47
2022/04/23 12:59:16;;;;;;;12.32;8.63;;;;;;;;;;5073888;28;20365;-54
2022/04/23 13:01:42;;;;;;;13.20;8.98;;;;;;;;;;5074005;28;20024;-55
2022/04/23 13:04:11;;;;;;;12.27;8.68;;;;;;;;;;5074096;28;20032;-57
2022/04/23 13:09:43;;;;;;;13.27;8.63;;;;;;;;;;5011639;28;20185;-54
2022/04/23 13:12:09;;;;;;;9.98;7.35;;;;;;;;;;5011724;28;20573;-44
2022/04/23 13:14:34;;;;;;;11.13;7.93;;;;;;;;;;5039934;28;20042;-43
2022/04/23 13:17:00;;;;;;;9.60;7.13;;;;;;;;;;5072270;28;20033;-60
2022/04/23 13:19:25;;;;;;;9.68;7.03;;;;;;;;;;5073395;28;20036;-58
2022/04/23 13:21:50;;;;;;;8.88;7.03;;;;;;;;;;5073511;28;20044;-59
2022/04/23 13:24:16;;;;;;;9.05;7.22;;;;;;;;;;5073547;28;20017;-57
2022/04/23 13:26:42;;;;;;;11.82;7.85;;;;;;;;;;5073626;28;20028;-59
2022/04/23 13:29:07;;;;;;;9.55;7.18;;;;;;;;;;5073580;28;20067;-59
2022/04/23 13:31:35;;;;;;;9.77;7.30;;;;;;;;;;5055693;28;20029;-59
2022/04/23 13:34:01;;;;;;;9.40;7.00;;;;;;;;;;5073499;28;20020;-59
2022/04/23 13:36:28;;;;;;;7.80;6.93;;;;;;;;;;5073366;28;20375;-59
2022/04/23 13:38:53;;;;;;;7.88;6.22;;;;;;;;;;5073363;28;20075;-59
2022/04/23 13:41:19;;;;;;;7.65;6.38;;;;;;;;;;5072890;28;20029;-59
2022/04/23 13:43:46;;;;;;;8.70;6.82;;;;;;;;;;5071054;28;20023;-59
2022/04/23 13:46:12;;;;;;;7.68;6.53;;;;;;;;;;5071197;28;20491;-57
2022/04/23 13:48:39;;;;;;;11.25;7.15;;;;;;;;;;5071432;28;20024;-57
2022/04/23 13:51:04;;;;;;;10.60;6.97;;;;;;;;;;5071465;28;20048;-60
2022/04/23 13:53:30;;;;;;;10.52;7.55;;;;;;;;;;5071616;28;20548;-56
2022/04/23 13:55:55;;;;;;;9.50;6.82;;;;;;;;;;5071499;28;20471;-59
2022/04/23 13:58:21;;;;;;;7.80;6.43;;;;;;;;;;5071058;28;20028;-59
2022/04/23 14:00:46;;;;;;;10.75;7.70;;;;;;;;;;5053152;28;20115;-57
2022/04/23 14:11:23;;;;;;;8.48;7.13;;;;;;;;;;5071394;28;20086;-59
2022/04/23 14:13:50;;;;;;;7.97;6.68;;;;;;;;;;5070872;28;20430;-58
2022/04/23 14:16:16;;;;;;;9.45;7.40;;;;;;;;;;5071303;28;20032;-58
2022/04/23 14:18:41;;;;;;;9.40;7.13;;;;;;;;;;5071109;28;20036;-58
2022/04/23 14:21:07;;;;;;;9.43;7.38;;;;;;;;;;5071212;28;20028;-57
2022/04/23 14:23:33;;;;;;;8.73;7.20;;;;;;;;;;5070818;28;20109;-59
2022/04/23 14:25:59;;;;;;;10.27;7.30;;;;;;;;;;5068529;28;20041;-52
2022/04/23 14:28:24;;;;;;;8.10;6.63;;;;;;;;;;5069799;28;20036;-59
2022/04/23 14:30:50;;;;;;;9.70;7.63;;;;;;;;;;5069546;28;20017;-59
2022/04/23 14:33:16;;;;;;;8.98;6.35;;;;;;;;;;5069701;28;20028;-49
2022/04/23 14:35:41;;;;;;;8.80;6.90;;;;;;;;;;5069782;28;20024;-46
2022/04/23 14:38:07;;;;;;;9.05;6.60;;;;;;;;;;5070836;28;20025;-52
2022/04/23 14:40:32;;;;;;;7.55;6.45;;;;;;;;;;5070861;28;20127;-42
2022/04/23 14:43:00;;;;;;;8.23;7.18;;;;;;;;;;5071134;28;20459;-42
2022/04/23 14:45:28;;;;;;;8.68;6.68;;;;;;;;;;5070742;28;20048;-58
2022/04/23 14:47:54;;;;;;;8.63;6.70;;;;;;;;;;5070538;28;20494;-60
2022/04/23 14:50:20;;;;;;;7.70;6.50;;;;;;;;;;5087165;28;20089;-57
2022/04/23 14:55:29;;;;;;;8.73;6.95;;;;;;;;;;5091598;28;20039;-59
2022/04/23 14:57:55;;;;;;;10.60;7.97;;;;;;;;;;5092385;28;20020;-58
2022/04/23 15:00:20;;;;;;;9.57;7.50;;;;;;;;;;5091935;28;20494;-58
2022/04/23 15:02:46;;;;;;;9.88;7.45;;;;;;;;;;5092464;28;20024;-59
2022/04/23 15:05:11;;;;;;;10.25;6.95;;;;;;;;;;5092204;28;20494;-59
2022/04/23 15:07:38;;;;;;;8.90;6.90;;;;;;;;;;5092401;28;20028;-58
2022/04/23 15:10:04;;;;;;;8.93;6.95;;;;;;;;;;5092081;28;20024;-59
2022/04/23 15:12:30;;;;;;;9.57;6.97;;;;;;;;;;5092521;28;20111;-58
2022/04/23 15:14:55;;;;;;;8.50;6.97;;;;;;;;;;5092528;28;20475;-58
2022/04/23 15:17:21;;;;;;;11.10;7.88;;;;;;;;;;5092399;28;20032;-59
2022/04/23 15:19:48;;;;;;;8.35;6.88;;;;;;;;;;5093236;28;20024;-58
2022/04/23 15:22:13;;;;;;;8.35;6.78;;;;;;;;;;5096186;28;20020;-51
2022/04/23 15:24:39;;;;;;;10.30;6.97;;;;;;;;;;5096084;28;20383;-52
2022/04/23 15:27:05;;;;;;;11.00;6.40;;;;;;;;;;5095264;28;20345;-46
2022/04/23 15:29:30;;;;;;;7.93;6.32;;;;;;;;;;5095939;28;20039;-51
2022/04/23 15:31:56;;;;;;;8.77;6.50;;;;;;;;;;5095029;28;20024;-41
2022/04/23 15:34:22;;;;;;;5.95;4.88;;;;;;;;;;5095267;28;20040;-43
2022/04/23 15:36:48;;;;;;;8.05;5.13;;;;;;;;;;5093991;28;20108;-48
2022/04/23 15:39:13;;;;;;;8.15;5.45;;;;;;;;;;5094796;28;20067;-59
2022/04/23 15:41:38;;;;;;;8.45;5.72;;;;;;;;;;5095418;28;20024;-57
2022/04/23 15:44:05;;;;;;;7.05;5.72;;;;;;;;;;5095123;28;20463;-56
2022/04/23 15:46:30;;;;;;;6.75;5.72;;;;;;;;;;5094296;28;20027;-58
2022/04/23 15:48:56;;;;;;;8.00;5.18;;;;;;;;;;5095757;28;20020;-59
2022/04/23 15:51:21;;;;;;;6.43;5.30;;;;;;;;;;5095827;28;20028;-59
2022/04/23 15:53:46;;;;;;;6.82;5.38;;;;;;;;;;5095429;28;20104;-58
2022/04/23 15:56:12;;;;;;;5.93;4.97;;;;;;;;;;5095691;28;20028;-59
2022/04/23 15:58:38;;;;;;;8.27;5.13;;;;;;;;;;5095265;28;20032;-59
2022/04/23 16:01:04;;;;;;;6.47;5.20;;;;;;;;;;5095922;28;20080;-56
2022/04/23 16:03:30;;;;;;;7.10;5.00;;;;;;;;;;5095315;28;20028;-45
2022/04/23 16:05:59;;;;;;;6.20;4.95;;;;;;;;;;5095484;28;20107;-47
2022/04/23 16:08:24;;;;;;;5.82;4.68;;;;;;;;;;5095736;28;20093;-47
2022/04/23 16:10:50;;;;;;;5.85;5.10;;;;;;;;;;5095402;28;20455;-42
2022/04/23 16:13:16;;;;;;;6.03;4.82;;;;;;;;;;5095061;28;20027;-52
2022/04/23 16:15:42;;;;;;;5.82;4.75;;;;;;;;;;5095337;28;20020;-43
2022/04/23 16:18:07;;;;;;;6.78;5.05;;;;;;;;;;5095256;28;20371;-50
2022/04/23 16:20:32;;;;;;;5.70;4.82;;;;;;;;;;5094900;28;20020;-53
2022/04/23 16:22:58;;;;;;;6.57;4.68;;;;;;;;;;5076764;28;20024;-53
2022/04/23 16:25:24;;;;;;;8.50;5.88;;;;;;;;;;5095265;28;20028;-56
2022/04/23 16:27:49;;;;;;;6.93;4.95;;;;;;;;;;5094792;28;20458;-57
2022/04/23 16:30:16;;;;;;;8.32;5.63;;;;;;;;;;5094818;28;20031;-59
2022/04/23 16:32:42;;;;;;;8.43;6.28;;;;;;;;;;5093868;28;20031;-56
2022/04/23 16:35:09;;;;;;;6.55;5.35;;;;;;;;;;5094953;28;20089;-60
2022/04/23 16:48:30;;;;;;;8.48;6.22;;;;;;;;;;5094146;28;20472;-59
2022/04/23 16:50:55;;;;;;;7.65;5.82;;;;;;;;;;5094424;28;20044;-60
2022/04/23 16:53:21;;;;;;;7.20;5.93;;;;;;;;;;5094360;28;20020;-59
2022/04/23 16:55:51;;;;;;;7.95;6.13;;;;;;;;;;5094278;28;20107;-57
2022/04/23 16:58:17;;;;;;;7.78;6.07;;;;;;;;;;5094203;28;20111;-59
2022/04/23 17:00:43;;;;;;;6.88;5.70;;;;;;;;;;5094477;28;20066;-59
2022/04/23 17:03:10;;;;;;;7.55;5.53;;;;;;;;;;5094371;28;20023;-59
2022/04/23 17:05:36;;;;;;;7.78;5.35;;;;;;;;;;5094075;28;20016;-59
2022/04/23 17:08:01;;;;;;;7.82;6.13;;;;;;;;;;5094349;28;20059;-60
2022/04/23 17:10:27;;;;;;;10.50;5.93;;;;;;;;;;5094242;28;20031;-59
2022/04/23 17:12:52;;;;;;;9.95;7.13;;;;;;;;;;5094150;28;20422;-58
2022/04/23 17:15:17;;;;;;;9.00;7.07;;;;;;;;;;5093946;28;20467;-56
2022/04/23 17:17:43;;;;;;;8.55;6.55;;;;;;;;;;5094132;28;20115;-58
2022/04/23 17:20:09;;;;;;;9.10;7.10;;;;;;;;;;5093954;28;20111;-58
2022/04/23 17:22:35;;;;;;;8.77;6.53;;;;;;;;;;5093784;28;20463;-59